sensor_id;sensor_type;location;lat;lon;timestamp;P1;durP1;ratioP1;P2;durP2;ratioP2
23046;SDS011;11691;51.462;6.902;2023-02-15T00:01:24;28.80;;;16.00;;
23046;SDS011;11691;51.462;6.902;2023-02-15T00:03:50;27.63;;;15.93;;
23046;SDS011;11691;51.462;6.902;2023-02-15T00:06:16;29.63;;;15.57;;
23046;SDS011;11691;51.462;6.902;2023-02-15T00:08:42;29.20;;;15.80;;
23046;SDS011;11691;51.462;6.902;2023-02-15T00:11:10;27.90;;;15.33;;
23046;SDS011;11691;51.462;6.902;2023-02-15T00:13:37;29.37;;;15.13;;
23046;SDS011;11691;51.462;6.902;2023-02-15T00:16:06;33.83;;;17.13;;
23046;SDS011;11691;51.462;6.902;2023-02-15T00:18:33;26.20;;;15.30;;
23046;SDS011;11691;51.462;6.902;2023-02-15T00:21:03;31.13;;;16.47;;
23046;SDS011;11691;51.462;6.902;2023-02-15T00:23:29;29.43;;;16.17;;
23046;SDS011;11691;51.462;6.902;2023-02-15T00:26:11;27.67;;;15.57;;
23046;SDS011;11691;51.462;6.902;2023-02-15T00:28:37;28.20;;;15.70;;
23046;SDS011;11691;51.462;6.902;2023-02-15T00:31:07;27.20;;;16.23;;
23046;SDS011;11691;51.462;6.902;2023-02-15T00:33:34;27.10;;;15.20;;
23046;SDS011;11691;51.462;6.902;2023-02-15T00:36:00;30.10;;;15.50;;
23046;SDS011;11691;51.462;6.902;2023-02-15T00:38:27;30.60;;;16.17;;
23046;SDS011;11691;51.462;6.902;2023-02-15T00:40:57;31.07;;;16.43;;
23046;SDS011;11691;51.462;6.902;2023-02-15T00:43:23;32.03;;;16.90;;
23046;SDS011;11691;51.462;6.902;2023-02-15T00:45:49;28.77;;;15.73;;
23046;SDS011;11691;51.462;6.902;2023-02-15T00:48:16;32.23;;;17.07;;
23046;SDS011;11691;51.462;6.902;2023-02-15T00:50:44;29.33;;;16.37;;
23046;SDS011;11691;51.462;6.902;2023-02-15T00:53:10;30.60;;;16.90;;
23046;SDS011;11691;51.462;6.902;2023-02-15T00:55:36;27.00;;;15.47;;
23046;SDS011;11691;51.462;6.902;2023-02-15T00:58:04;30.70;;;16.23;;
23046;SDS011;11691;51.462;6.902;2023-02-15T01:00:30;27.53;;;16.07;;
23046;SDS011;11691;51.462;6.902;2023-02-15T01:02:55;31.47;;;15.00;;
23046;SDS011;11691;51.462;6.902;2023-02-15T01:05:21;30.73;;;16.43;;
23046;SDS011;11691;51.462;6.902;2023-02-15T01:07:47;30.63;;;15.67;;
23046;SDS011;11691;51.462;6.902;2023-02-15T01:10:13;31.03;;;15.50;;
23046;SDS011;11691;51.462;6.902;2023-02-15T01:12:39;26.57;;;15.93;;
23046;SDS011;11691;51.462;6.902;2023-02-15T01:15:05;31.77;;;17.10;;
23046;SDS011;11691;51.462;6.902;2023-02-15T01:17:31;32.13;;;17.80;;
23046;SDS011;11691;51.462;6.902;2023-02-15T01:19:57;37.83;;;17.30;;
23046;SDS011;11691;51.462;6.902;2023-02-15T01:22:24;32.40;;;16.37;;
23046;SDS011;11691;51.462;6.902;2023-02-15T01:24:50;31.20;;;16.03;;
23046;SDS011;11691;51.462;6.902;2023-02-15T01:27:16;27.17;;;14.80;;
23046;SDS011;11691;51.462;6.902;2023-02-15T01:29:42;31.00;;;15.47;;
23046;SDS011;11691;51.462;6.902;2023-02-15T01:32:08;29.67;;;16.20;;
23046;SDS011;11691;51.462;6.902;2023-02-15T01:34:34;27.80;;;16.30;;
23046;SDS011;11691;51.462;6.902;2023-02-15T01:37:00;29.67;;;15.33;;
23046;SDS011;11691;51.462;6.902;2023-02-15T01:39:26;30.33;;;16.27;;
23046;SDS011;11691;51.462;6.902;2023-02-15T01:41:52;31.07;;;15.77;;
23046;SDS011;11691;51.462;6.902;2023-02-15T01:47:26;29.93;;;16.37;;
23046;SDS011;11691;51.462;6.902;2023-02-15T01:50:37;35.43;;;16.67;;
23046;SDS011;11691;51.462;6.902;2023-02-15T01:53:03;27.57;;;16.27;;
23046;SDS011;11691;51.462;6.902;2023-02-15T01:55:50;30.00;;;16.97;;
23046;SDS011;11691;51.462;6.902;2023-02-15T01:58:18;29.97;;;17.17;;
23046;SDS011;11691;51.462;6.902;2023-02-15T02:00:45;29.90;;;15.37;;
23046;SDS011;11691;51.462;6.902;2023-02-15T02:03:10;29.27;;;16.80;;
23046;SDS011;11691;51.462;6.902;2023-02-15T02:05:37;27.90;;;16.07;;
23046;SDS011;11691;51.462;6.902;2023-02-15T02:08:03;31.43;;;16.03;;
23046;SDS011;11691;51.462;6.902;2023-02-15T02:10:29;30.27;;;16.10;;
23046;SDS011;11691;51.462;6.902;2023-02-15T02:12:58;34.20;;;17.60;;
23046;SDS011;11691;51.462;6.902;2023-02-15T02:15:39;29.83;;;15.97;;
23046;SDS011;11691;51.462;6.902;2023-02-15T02:20:51;30.83;;;15.90;;
23046;SDS011;11691;51.462;6.902;2023-02-15T02:34:43;36.20;;;17.53;;
23046;SDS011;11691;51.462;6.902;2023-02-15T02:37:28;35.87;;;17.87;;
23046;SDS011;11691;51.462;6.902;2023-02-15T02:40:19;36.70;;;19.60;;
23046;SDS011;11691;51.462;6.902;2023-02-15T02:42:49;35.23;;;19.23;;
23046;SDS011;11691;51.462;6.902;2023-02-15T02:47:59;35.30;;;19.40;;
23046;SDS011;11691;51.462;6.902;2023-02-15T02:50:39;32.83;;;18.23;;
23046;SDS011;11691;51.462;6.902;2023-02-15T02:53:05;32.77;;;17.53;;
23046;SDS011;11691;51.462;6.902;2023-02-15T02:55:33;37.80;;;19.07;;
23046;SDS011;11691;51.462;6.902;2023-02-15T02:58:54;33.60;;;17.77;;
23046;SDS011;11691;51.462;6.902;2023-02-15T03:01:15;31.40;;;17.37;;
23046;SDS011;11691;51.462;6.902;2023-02-15T03:03:56;29.87;;;17.03;;
23046;SDS011;11691;51.462;6.902;2023-02-15T03:06:33;30.00;;;16.43;;
23046;SDS011;11691;51.462;6.902;2023-02-15T03:09:03;30.70;;;16.60;;
23046;SDS011;11691;51.462;6.902;2023-02-15T03:11:32;34.30;;;17.87;;
23046;SDS011;11691;51.462;6.902;2023-02-15T03:13:58;33.50;;;16.67;;
23046;SDS011;11691;51.462;6.902;2023-02-15T03:16:24;36.17;;;18.63;;
23046;SDS011;11691;51.462;6.902;2023-02-15T03:18:54;33.80;;;18.33;;
23046;SDS011;11691;51.462;6.902;2023-02-15T03:21:25;37.03;;;19.47;;
23046;SDS011;11691;51.462;6.902;2023-02-15T03:23:54;38.30;;;19.43;;
23046;SDS011;11691;51.462;6.902;2023-02-15T03:26:25;38.40;;;20.53;;
23046;SDS011;11691;51.462;6.902;2023-02-15T03:28:55;35.97;;;18.70;;
23046;SDS011;11691;51.462;6.902;2023-02-15T03:31:21;39.20;;;19.87;;
23046;SDS011;11691;51.462;6.902;2023-02-15T03:34:02;36.23;;;19.27;;
23046;SDS011;11691;51.462;6.902;2023-02-15T03:42:39;33.33;;;17.83;;
23046;SDS011;11691;51.462;6.902;2023-02-15T03:47:31;37.03;;;19.17;;
23046;SDS011;11691;51.462;6.902;2023-02-15T03:50:02;39.37;;;19.20;;
23046;SDS011;11691;51.462;6.902;2023-02-15T03:52:59;33.57;;;18.30;;
23046;SDS011;11691;51.462;6.902;2023-02-15T03:55:27;35.63;;;18.27;;
23046;SDS011;11691;51.462;6.902;2023-02-15T03:57:53;36.07;;;18.10;;
23046;SDS011;11691;51.462;6.902;2023-02-15T04:00:39;33.93;;;18.57;;
23046;SDS011;11691;51.462;6.902;2023-02-15T04:06:17;31.53;;;18.40;;
23046;SDS011;11691;51.462;6.902;2023-02-15T04:08:43;34.27;;;18.63;;
23046;SDS011;11691;51.462;6.902;2023-02-15T04:11:27;36.73;;;18.87;;
23046;SDS011;11691;51.462;6.902;2023-02-15T04:13:53;36.97;;;19.57;;
23046;SDS011;11691;51.462;6.902;2023-02-15T04:16:21;35.87;;;18.97;;
23046;SDS011;11691;51.462;6.902;2023-02-15T04:18:47;38.27;;;19.50;;
23046;SDS011;11691;51.462;6.902;2023-02-15T04:21:32;37.87;;;19.20;;
23046;SDS011;11691;51.462;6.902;2023-02-15T04:24:16;37.53;;;18.87;;
23046;SDS011;11691;51.462;6.902;2023-02-15T04:27:02;37.90;;;20.47;;
23046;SDS011;11691;51.462;6.902;2023-02-15T04:29:28;36.13;;;19.17;;
23046;SDS011;11691;51.462;6.902;2023-02-15T04:31:55;39.30;;;19.40;;
23046;SDS011;11691;51.462;6.902;2023-02-15T04:34:21;36.73;;;18.90;;
23046;SDS011;11691;51.462;6.902;2023-02-15T04:36:48;34.47;;;19.27;;
23046;SDS011;11691;51.462;6.902;2023-02-15T04:39:15;36.33;;;19.00;;
23046;SDS011;11691;51.462;6.902;2023-02-15T04:41:41;43.10;;;20.43;;
23046;SDS011;11691;51.462;6.902;2023-02-15T04:44:07;38.03;;;20.23;;
23046;SDS011;11691;51.462;6.902;2023-02-15T04:46:33;37.37;;;19.07;;
23046;SDS011;11691;51.462;6.902;2023-02-15T04:48:59;36.80;;;19.00;;
23046;SDS011;11691;51.462;6.902;2023-02-15T04:51:25;36.33;;;19.07;;
23046;SDS011;11691;51.462;6.902;2023-02-15T04:53:51;38.33;;;20.00;;
23046;SDS011;11691;51.462;6.902;2023-02-15T04:56:17;38.47;;;18.97;;
23046;SDS011;11691;51.462;6.902;2023-02-15T04:58:44;35.17;;;19.20;;
23046;SDS011;11691;51.462;6.902;2023-02-15T05:01:10;35.47;;;18.50;;
23046;SDS011;11691;51.462;6.902;2023-02-15T05:03:36;39.23;;;19.53;;
23046;SDS011;11691;51.462;6.902;2023-02-15T05:06:02;37.90;;;18.67;;
23046;SDS011;11691;51.462;6.902;2023-02-15T05:08:29;39.47;;;20.83;;
23046;SDS011;11691;51.462;6.902;2023-02-15T05:10:55;37.63;;;19.10;;
23046;SDS011;11691;51.462;6.902;2023-02-15T05:13:21;36.43;;;19.50;;
23046;SDS011;11691;51.462;6.902;2023-02-15T05:15:47;40.17;;;19.63;;
23046;SDS011;11691;51.462;6.902;2023-02-15T05:18:14;34.83;;;19.13;;
23046;SDS011;11691;51.462;6.902;2023-02-15T05:20:40;37.20;;;19.20;;
23046;SDS011;11691;51.462;6.902;2023-02-15T05:23:06;37.60;;;19.13;;
23046;SDS011;11691;51.462;6.902;2023-02-15T05:25:31;36.57;;;19.13;;
23046;SDS011;11691;51.462;6.902;2023-02-15T05:28:16;33.70;;;19.30;;
23046;SDS011;11691;51.462;6.902;2023-02-15T05:30:47;34.63;;;18.47;;
23046;SDS011;11691;51.462;6.902;2023-02-15T05:33:13;34.90;;;18.23;;
23046;SDS011;11691;51.462;6.902;2023-02-15T05:35:39;37.37;;;19.03;;
23046;SDS011;11691;51.462;6.902;2023-02-15T05:38:05;37.73;;;18.97;;
23046;SDS011;11691;51.462;6.902;2023-02-15T05:40:31;36.13;;;19.07;;
23046;SDS011;11691;51.462;6.902;2023-02-15T05:42:57;35.53;;;18.70;;
23046;SDS011;11691;51.462;6.902;2023-02-15T05:45:23;35.60;;;18.77;;
23046;SDS011;11691;51.462;6.902;2023-02-15T05:47:49;35.90;;;18.37;;
23046;SDS011;11691;51.462;6.902;2023-02-15T05:50:15;35.87;;;19.87;;
23046;SDS011;11691;51.462;6.902;2023-02-15T05:52:41;35.43;;;19.13;;
23046;SDS011;11691;51.462;6.902;2023-02-15T05:55:07;34.17;;;18.70;;
23046;SDS011;11691;51.462;6.902;2023-02-15T05:57:34;37.43;;;19.13;;
23046;SDS011;11691;51.462;6.902;2023-02-15T06:00:00;36.60;;;20.13;;
23046;SDS011;11691;51.462;6.902;2023-02-15T06:02:26;36.90;;;18.80;;
23046;SDS011;11691;51.462;6.902;2023-02-15T06:04:52;34.90;;;18.93;;
23046;SDS011;11691;51.462;6.902;2023-02-15T06:07:18;35.77;;;18.10;;
23046;SDS011;11691;51.462;6.902;2023-02-15T06:09:44;38.70;;;20.07;;
23046;SDS011;11691;51.462;6.902;2023-02-15T06:12:12;31.27;;;17.73;;
23046;SDS011;11691;51.462;6.902;2023-02-15T06:14:38;38.67;;;19.03;;
23046;SDS011;11691;51.462;6.902;2023-02-15T06:17:04;33.20;;;18.40;;
23046;SDS011;11691;51.462;6.902;2023-02-15T06:19:30;34.37;;;18.43;;
23046;SDS011;11691;51.462;6.902;2023-02-15T06:21:56;33.97;;;17.30;;
23046;SDS011;11691;51.462;6.902;2023-02-15T06:24:22;58.50;;;29.20;;
23046;SDS011;11691;51.462;6.902;2023-02-15T06:26:48;44.93;;;24.40;;
23046;SDS011;11691;51.462;6.902;2023-02-15T06:29:14;41.87;;;22.10;;
23046;SDS011;11691;51.462;6.902;2023-02-15T06:31:40;40.87;;;22.53;;
23046;SDS011;11691;51.462;6.902;2023-02-15T06:34:06;39.23;;;21.90;;
23046;SDS011;11691;51.462;6.902;2023-02-15T06:36:31;44.57;;;23.57;;
23046;SDS011;11691;51.462;6.902;2023-02-15T06:38:57;41.67;;;21.27;;
23046;SDS011;11691;51.462;6.902;2023-02-15T06:41:23;40.80;;;21.03;;
23046;SDS011;11691;51.462;6.902;2023-02-15T06:43:49;44.67;;;20.60;;
23046;SDS011;11691;51.462;6.902;2023-02-15T06:46:15;38.40;;;19.87;;
23046;SDS011;11691;51.462;6.902;2023-02-15T06:48:42;37.73;;;19.83;;
23046;SDS011;11691;51.462;6.902;2023-02-15T06:51:08;39.80;;;20.17;;
23046;SDS011;11691;51.462;6.902;2023-02-15T06:53:34;43.13;;;20.33;;
23046;SDS011;11691;51.462;6.902;2023-02-15T06:56:04;33.37;;;19.20;;
23046;SDS011;11691;51.462;6.902;2023-02-15T06:58:34;37.63;;;19.53;;
23046;SDS011;11691;51.462;6.902;2023-02-15T07:01:01;39.47;;;19.50;;
23046;SDS011;11691;51.462;6.902;2023-02-15T07:03:27;34.50;;;18.70;;
23046;SDS011;11691;51.462;6.902;2023-02-15T07:05:56;33.07;;;18.10;;
23046;SDS011;11691;51.462;6.902;2023-02-15T07:08:23;33.43;;;18.60;;
23046;SDS011;11691;51.462;6.902;2023-02-15T07:10:49;34.77;;;19.03;;
23046;SDS011;11691;51.462;6.902;2023-02-15T07:13:16;33.33;;;18.13;;
23046;SDS011;11691;51.462;6.902;2023-02-15T07:15:42;34.67;;;18.47;;
23046;SDS011;11691;51.462;6.902;2023-02-15T07:18:08;38.63;;;18.60;;
23046;SDS011;11691;51.462;6.902;2023-02-15T07:20:35;35.20;;;18.17;;
23046;SDS011;11691;51.462;6.902;2023-02-15T07:23:02;41.47;;;18.83;;
23046;SDS011;11691;51.462;6.902;2023-02-15T07:25:28;37.53;;;17.60;;
23046;SDS011;11691;51.462;6.902;2023-02-15T07:27:57;42.57;;;17.60;;
23046;SDS011;11691;51.462;6.902;2023-02-15T07:30:23;39.27;;;17.80;;
23046;SDS011;11691;51.462;6.902;2023-02-15T07:32:49;30.63;;;15.73;;
23046;SDS011;11691;51.462;6.902;2023-02-15T07:35:34;28.80;;;16.77;;
23046;SDS011;11691;51.462;6.902;2023-02-15T07:38:00;33.00;;;17.13;;
23046;SDS011;11691;51.462;6.902;2023-02-15T07:40:26;31.10;;;15.90;;
23046;SDS011;11691;51.462;6.902;2023-02-15T07:42:52;36.60;;;16.40;;
23046;SDS011;11691;51.462;6.902;2023-02-15T07:45:19;30.20;;;16.57;;
23046;SDS011;11691;51.462;6.902;2023-02-15T07:47:46;31.17;;;16.70;;
23046;SDS011;11691;51.462;6.902;2023-02-15T07:50:12;27.97;;;15.47;;
23046;SDS011;11691;51.462;6.902;2023-02-15T07:52:38;32.47;;;14.70;;
23046;SDS011;11691;51.462;6.902;2023-02-15T07:55:04;28.43;;;15.93;;
23046;SDS011;11691;51.462;6.902;2023-02-15T07:57:30;33.70;;;15.87;;
23046;SDS011;11691;51.462;6.902;2023-02-15T07:59:56;31.67;;;15.70;;
23046;SDS011;11691;51.462;6.902;2023-02-15T08:02:22;29.17;;;15.33;;
23046;SDS011;11691;51.462;6.902;2023-02-15T08:04:48;29.50;;;16.80;;
23046;SDS011;11691;51.462;6.902;2023-02-15T08:07:14;29.70;;;15.17;;
23046;SDS011;11691;51.462;6.902;2023-02-15T08:09:40;28.60;;;15.50;;
23046;SDS011;11691;51.462;6.902;2023-02-15T08:12:06;27.00;;;15.03;;
23046;SDS011;11691;51.462;6.902;2023-02-15T08:14:32;27.23;;;14.70;;
23046;SDS011;11691;51.462;6.902;2023-02-15T08:16:59;35.37;;;15.03;;
23046;SDS011;11691;51.462;6.902;2023-02-15T08:19:31;28.23;;;14.93;;
23046;SDS011;11691;51.462;6.902;2023-02-15T08:22:01;25.87;;;13.53;;
23046;SDS011;11691;51.462;6.902;2023-02-15T08:24:30;26.93;;;14.10;;
23046;SDS011;11691;51.462;6.902;2023-02-15T08:26:58;24.27;;;14.13;;
23046;SDS011;11691;51.462;6.902;2023-02-15T08:29:25;28.03;;;14.53;;
23046;SDS011;11691;51.462;6.902;2023-02-15T08:31:55;23.57;;;13.77;;
23046;SDS011;11691;51.462;6.902;2023-02-15T08:34:23;27.83;;;13.57;;
23046;SDS011;11691;51.462;6.902;2023-02-15T08:36:49;28.05;;;14.40;;
23046;SDS011;11691;51.462;6.902;2023-02-15T08:39:16;23.90;;;13.85;;
23046;SDS011;11691;51.462;6.902;2023-02-15T08:41:42;27.35;;;12.52;;
23046;SDS011;11691;51.462;6.902;2023-02-15T08:44:08;25.17;;;14.10;;
23046;SDS011;11691;51.462;6.902;2023-02-15T08:46:36;21.30;;;13.07;;
23046;SDS011;11691;51.462;6.902;2023-02-15T08:49:04;20.90;;;12.98;;
23046;SDS011;11691;51.462;6.902;2023-02-15T08:51:30;25.63;;;13.50;;
23046;SDS011;11691;51.462;6.902;2023-02-15T08:53:58;23.20;;;13.38;;
23046;SDS011;11691;51.462;6.902;2023-02-15T08:56:27;21.73;;;13.18;;
23046;SDS011;11691;51.462;6.902;2023-02-15T08:58:55;25.02;;;13.38;;
23046;SDS011;11691;51.462;6.902;2023-02-15T09:01:22;25.27;;;13.60;;
23046;SDS011;11691;51.462;6.902;2023-02-15T09:03:50;23.48;;;13.90;;
23046;SDS011;11691;51.462;6.902;2023-02-15T09:06:20;24.80;;;12.95;;
23046;SDS011;11691;51.462;6.902;2023-02-15T09:08:47;26.50;;;13.32;;
23046;SDS011;11691;51.462;6.902;2023-02-15T09:13:47;22.13;;;12.68;;
23046;SDS011;11691;51.462;6.902;2023-02-15T09:16:13;21.98;;;11.80;;
23046;SDS011;11691;51.462;6.902;2023-02-15T09:18:41;24.00;;;13.40;;
23046;SDS011;11691;51.462;6.902;2023-02-15T09:21:09;22.55;;;12.35;;
23046;SDS011;11691;51.462;6.902;2023-02-15T09:23:39;22.77;;;12.82;;
23046;SDS011;11691;51.462;6.902;2023-02-15T09:26:09;20.50;;;12.23;;
23046;SDS011;11691;51.462;6.902;2023-02-15T09:28:36;24.05;;;12.63;;
23046;SDS011;11691;51.462;6.902;2023-02-15T09:31:10;20.85;;;12.68;;
23046;SDS011;11691;51.462;6.902;2023-02-15T09:33:37;20.48;;;12.25;;
23046;SDS011;11691;51.462;6.902;2023-02-15T09:36:04;23.38;;;12.32;;
23046;SDS011;11691;51.462;6.902;2023-02-15T09:38:30;22.05;;;12.43;;
23046;SDS011;11691;51.462;6.902;2023-02-15T09:43:54;19.65;;;11.60;;
23046;SDS011;11691;51.462;6.902;2023-02-15T09:46:25;21.83;;;11.55;;
23046;SDS011;11691;51.462;6.902;2023-02-15T09:48:55;23.48;;;12.27;;
23046;SDS011;11691;51.462;6.902;2023-02-15T09:54:06;20.42;;;12.32;;
23046;SDS011;11691;51.462;6.902;2023-02-15T10:09:48;24.88;;;11.70;;
23046;SDS011;11691;51.462;6.902;2023-02-15T10:15:04;17.90;;;10.95;;
23046;SDS011;11691;51.462;6.902;2023-02-15T10:22:41;18.02;;;10.38;;
23046;SDS011;11691;51.462;6.902;2023-02-15T10:27:51;16.20;;;10.10;;
23046;SDS011;11691;51.462;6.902;2023-02-15T10:30:18;19.38;;;10.60;;
23046;SDS011;11691;51.462;6.902;2023-02-15T10:33:03;17.73;;;9.75;;
23046;SDS011;11691;51.462;6.902;2023-02-15T10:40:57;21.08;;;10.20;;
23046;SDS011;11691;51.462;6.902;2023-02-15T10:51:11;18.98;;;10.73;;
23046;SDS011;11691;51.462;6.902;2023-02-15T10:53:52;19.60;;;11.32;;
23046;SDS011;11691;51.462;6.902;2023-02-15T10:56:38;14.80;;;9.90;;
23046;SDS011;11691;51.462;6.902;2023-02-15T11:05:14;14.90;;;9.77;;
23046;SDS011;11691;51.462;6.902;2023-02-15T11:07:49;16.08;;;9.65;;
23046;SDS011;11691;51.462;6.902;2023-02-15T11:10:28;14.93;;;9.52;;
23046;SDS011;11691;51.462;6.902;2023-02-15T11:12:56;17.90;;;10.25;;
23046;SDS011;11691;51.462;6.902;2023-02-15T11:15:27;16.17;;;10.02;;
23046;SDS011;11691;51.462;6.902;2023-02-15T11:23:15;19.55;;;10.25;;
23046;SDS011;11691;51.462;6.902;2023-02-15T11:25:44;19.08;;;10.60;;
23046;SDS011;11691;51.462;6.902;2023-02-15T11:28:17;17.45;;;10.13;;
23046;SDS011;11691;51.462;6.902;2023-02-15T11:30:49;15.15;;;9.95;;
23046;SDS011;11691;51.462;6.902;2023-02-15T11:33:24;16.40;;;10.68;;
23046;SDS011;11691;51.462;6.902;2023-02-15T11:36:00;15.30;;;9.80;;
23046;SDS011;11691;51.462;6.902;2023-02-15T11:38:31;20.08;;;10.10;;
23046;SDS011;11691;51.462;6.902;2023-02-15T11:41:11;16.75;;;9.82;;
23046;SDS011;11691;51.462;6.902;2023-02-15T11:43:46;19.15;;;9.95;;
23046;SDS011;11691;51.462;6.902;2023-02-15T11:46:14;20.40;;;10.00;;
23046;SDS011;11691;51.462;6.902;2023-02-15T11:48:40;18.50;;;10.18;;
23046;SDS011;11691;51.462;6.902;2023-02-15T11:51:20;16.85;;;9.95;;
23046;SDS011;11691;51.462;6.902;2023-02-15T11:53:48;18.20;;;10.18;;
23046;SDS011;11691;51.462;6.902;2023-02-15T11:58:48;17.02;;;10.35;;
23046;SDS011;11691;51.462;6.902;2023-02-15T12:01:20;15.52;;;9.90;;
23046;SDS011;11691;51.462;6.902;2023-02-15T12:03:51;18.98;;;9.60;;
23046;SDS011;11691;51.462;6.902;2023-02-15T12:08:53;18.08;;;10.15;;
23046;SDS011;11691;51.462;6.902;2023-02-15T12:11:22;16.20;;;9.65;;
23046;SDS011;11691;51.462;6.902;2023-02-15T12:13:56;16.23;;;10.00;;
23046;SDS011;11691;51.462;6.902;2023-02-15T12:16:23;18.98;;;10.07;;
23046;SDS011;11691;51.462;6.902;2023-02-15T12:18:49;17.73;;;10.32;;
23046;SDS011;11691;51.462;6.902;2023-02-15T12:21:33;20.27;;;9.65;;
23046;SDS011;11691;51.462;6.902;2023-02-15T12:24:18;16.80;;;9.00;;
23046;SDS011;11691;51.462;6.902;2023-02-15T12:29:53;16.13;;;8.93;;
23046;SDS011;11691;51.462;6.902;2023-02-15T12:32:28;15.38;;;9.68;;
23046;SDS011;11691;51.462;6.902;2023-02-15T12:35:18;16.83;;;9.90;;
23046;SDS011;11691;51.462;6.902;2023-02-15T12:37:51;16.45;;;9.52;;
23046;SDS011;11691;51.462;6.902;2023-02-15T12:40:21;17.00;;;9.18;;
23046;SDS011;11691;51.462;6.902;2023-02-15T12:42:47;17.10;;;9.35;;
23046;SDS011;11691;51.462;6.902;2023-02-15T12:45:25;22.42;;;8.55;;
23046;SDS011;11691;51.462;6.902;2023-02-15T12:50:36;20.67;;;9.40;;
23046;SDS011;11691;51.462;6.902;2023-02-15T12:53:06;17.50;;;8.38;;
23046;SDS011;11691;51.462;6.902;2023-02-15T12:55:58;19.63;;;9.48;;
23046;SDS011;11691;51.462;6.902;2023-02-15T12:58:25;18.75;;;9.40;;
23046;SDS011;11691;51.462;6.902;2023-02-15T13:03:40;15.68;;;8.48;;
23046;SDS011;11691;51.462;6.902;2023-02-15T13:06:17;23.00;;;10.13;;
23046;SDS011;11691;51.462;6.902;2023-02-15T13:08:51;17.92;;;8.93;;
23046;SDS011;11691;51.462;6.902;2023-02-15T13:11:22;17.30;;;8.90;;
23046;SDS011;11691;51.462;6.902;2023-02-15T13:13:55;18.10;;;9.25;;
23046;SDS011;11691;51.462;6.902;2023-02-15T13:16:25;19.75;;;9.10;;
23046;SDS011;11691;51.462;6.902;2023-02-15T13:18:57;18.58;;;8.85;;
23046;SDS011;11691;51.462;6.902;2023-02-15T13:21:29;20.63;;;9.77;;
23046;SDS011;11691;51.462;6.902;2023-02-15T13:23:57;18.00;;;9.30;;
23046;SDS011;11691;51.462;6.902;2023-02-15T13:26:25;17.05;;;9.35;;
23046;SDS011;11691;51.462;6.902;2023-02-15T13:28:55;22.95;;;9.68;;
23046;SDS011;11691;51.462;6.902;2023-02-15T13:31:26;22.70;;;9.75;;
23046;SDS011;11691;51.462;6.902;2023-02-15T13:34:02;18.73;;;9.88;;
23046;SDS011;11691;51.462;6.902;2023-02-15T13:36:51;16.65;;;7.85;;
23046;SDS011;11691;51.462;6.902;2023-02-15T13:42:20;18.88;;;8.95;;
23046;SDS011;11691;51.462;6.902;2023-02-15T13:47:27;20.17;;;8.50;;
23046;SDS011;11691;51.462;6.902;2023-02-15T13:54:52;19.05;;;8.15;;
23046;SDS011;11691;51.462;6.902;2023-02-15T13:57:29;18.20;;;9.55;;
23046;SDS011;11691;51.462;6.902;2023-02-15T14:02:49;16.60;;;8.98;;
23046;SDS011;11691;51.462;6.902;2023-02-15T14:05:51;15.93;;;8.68;;
23046;SDS011;11691;51.462;6.902;2023-02-15T14:08:37;19.80;;;9.15;;
23046;SDS011;11691;51.462;6.902;2023-02-15T14:14:01;19.95;;;9.05;;
23046;SDS011;11691;51.462;6.902;2023-02-15T14:19:22;16.08;;;8.57;;
23046;SDS011;11691;51.462;6.902;2023-02-15T14:21:56;17.42;;;9.10;;
23046;SDS011;11691;51.462;6.902;2023-02-15T14:24:31;20.85;;;8.95;;
23046;SDS011;11691;51.462;6.902;2023-02-15T14:30:00;18.67;;;8.90;;
23046;SDS011;11691;51.462;6.902;2023-02-15T14:32:45;15.85;;;8.35;;
23046;SDS011;11691;51.462;6.902;2023-02-15T14:35:15;16.83;;;8.50;;
23046;SDS011;11691;51.462;6.902;2023-02-15T14:37:44;18.50;;;9.02;;
23046;SDS011;11691;51.462;6.902;2023-02-15T14:45:57;17.05;;;8.95;;
23046;SDS011;11691;51.462;6.902;2023-02-15T14:48:32;16.20;;;8.25;;
23046;SDS011;11691;51.462;6.902;2023-02-15T14:51:00;15.30;;;7.63;;
23046;SDS011;11691;51.462;6.902;2023-02-15T14:56:12;16.83;;;8.68;;
23046;SDS011;11691;51.462;6.902;2023-02-15T15:01:28;15.32;;;8.18;;
23046;SDS011;11691;51.462;6.902;2023-02-15T15:03:58;18.90;;;9.30;;
23046;SDS011;11691;51.462;6.902;2023-02-15T15:06:32;17.60;;;9.35;;
23046;SDS011;11691;51.462;6.902;2023-02-15T15:09:00;15.30;;;8.45;;
23046;SDS011;11691;51.462;6.902;2023-02-15T15:13:58;16.70;;;8.65;;
23046;SDS011;11691;51.462;6.902;2023-02-15T15:18:50;14.32;;;7.82;;
23046;SDS011;11691;51.462;6.902;2023-02-15T15:24:01;18.13;;;8.25;;
23046;SDS011;11691;51.462;6.902;2023-02-15T15:26:31;20.00;;;8.98;;
23046;SDS011;11691;51.462;6.902;2023-02-15T15:29:01;13.95;;;8.20;;
23046;SDS011;11691;51.462;6.902;2023-02-15T15:41:52;20.92;;;8.75;;
23046;SDS011;11691;51.462;6.902;2023-02-15T15:47:32;17.52;;;8.63;;
23046;SDS011;11691;51.462;6.902;2023-02-15T15:50:11;15.25;;;8.13;;
23046;SDS011;11691;51.462;6.902;2023-02-15T15:52:40;18.35;;;8.35;;
23046;SDS011;11691;51.462;6.902;2023-02-15T15:55:13;19.90;;;8.35;;
23046;SDS011;11691;51.462;6.902;2023-02-15T15:57:45;15.65;;;7.78;;
23046;SDS011;11691;51.462;6.902;2023-02-15T16:02:50;15.85;;;8.13;;
23046;SDS011;11691;51.462;6.902;2023-02-15T16:05:16;19.10;;;9.52;;
23046;SDS011;11691;51.462;6.902;2023-02-15T16:07:42;16.70;;;8.88;;
23046;SDS011;11691;51.462;6.902;2023-02-15T16:10:19;14.80;;;8.30;;
23046;SDS011;11691;51.462;6.902;2023-02-15T16:12:46;17.25;;;8.48;;
23046;SDS011;11691;51.462;6.902;2023-02-15T16:15:15;22.40;;;8.82;;
23046;SDS011;11691;51.462;6.902;2023-02-15T16:17:55;20.08;;;9.02;;
23046;SDS011;11691;51.462;6.902;2023-02-15T16:23:32;15.15;;;8.50;;
23046;SDS011;11691;51.462;6.902;2023-02-15T16:28:12;17.83;;;8.70;;
23046;SDS011;11691;51.462;6.902;2023-02-15T16:30:39;18.17;;;8.88;;
23046;SDS011;11691;51.462;6.902;2023-02-15T16:35:33;16.20;;;8.95;;
23046;SDS011;11691;51.462;6.902;2023-02-15T16:38:00;19.33;;;8.82;;
23046;SDS011;11691;51.462;6.902;2023-02-15T16:40:28;17.77;;;8.32;;
23046;SDS011;11691;51.462;6.902;2023-02-15T16:42:59;17.55;;;9.40;;
23046;SDS011;11691;51.462;6.902;2023-02-15T16:45:27;17.27;;;8.48;;
23046;SDS011;11691;51.462;6.902;2023-02-15T16:47:57;17.45;;;8.48;;
23046;SDS011;11691;51.462;6.902;2023-02-15T16:50:32;16.55;;;8.13;;
23046;SDS011;11691;51.462;6.902;2023-02-15T16:52:58;18.65;;;9.38;;
23046;SDS011;11691;51.462;6.902;2023-02-15T16:55:26;17.60;;;8.85;;
23046;SDS011;11691;51.462;6.902;2023-02-15T16:57:55;18.73;;;9.43;;
23046;SDS011;11691;51.462;6.902;2023-02-15T17:00:22;17.48;;;8.90;;
23046;SDS011;11691;51.462;6.902;2023-02-15T17:05:51;24.92;;;9.85;;
23046;SDS011;11691;51.462;6.902;2023-02-15T17:08:31;18.77;;;9.60;;
23046;SDS011;11691;51.462;6.902;2023-02-15T17:13:26;18.60;;;9.32;;
23046;SDS011;11691;51.462;6.902;2023-02-15T17:18:24;17.83;;;9.35;;
23046;SDS011;11691;51.462;6.902;2023-02-15T17:20:53;19.25;;;9.82;;
23046;SDS011;11691;51.462;6.902;2023-02-15T17:23:30;22.10;;;9.90;;
23046;SDS011;11691;51.462;6.902;2023-02-15T17:25:58;22.08;;;10.57;;
23046;SDS011;11691;51.462;6.902;2023-02-15T17:28:27;19.67;;;9.85;;
23046;SDS011;11691;51.462;6.902;2023-02-15T17:30:54;22.02;;;9.93;;
23046;SDS011;11691;51.462;6.902;2023-02-15T17:33:23;17.88;;;9.20;;
23046;SDS011;11691;51.462;6.902;2023-02-15T17:36:03;17.80;;;9.18;;